KFLO/FLO METAR and TAF weather

Enter ICAO airport designator
Station Type Date Time Source
KFLO METAR 2018/12/12 07:53 UTC NOAA

KFLO 120753Z AUTO 25005KT 10SM CLR 00/M01 A3018 RMK AO2 SLP217 I1000 T00001006


Station Type Date Time Source
KFLO Decoded METAR 2018/12/12 07:53 UTC NOAA

FLORENCE REGIONAL AIRPORT, SC, United States (KFLO) 34-11N 079-44W 44M
Dec 12, 2018 - 02:53 AM EST / 2018.12.12 0753 UTC
Wind: from the WSW (250 degrees) at 6 MPH (5 KT):0
Visibility: 10 mile(s):0
Sky conditions: clear
Temperature: 32.0 F (0.0 C)
Windchill: 26 F (-3 C):1
Dew Point: 30.9 F (-0.6 C)
Relative Humidity: 95%
Pressure (altimeter): 30.18 in. Hg (1022 hPa)
ob: KFLO 120753Z AUTO 25005KT 10SM CLR 00/M01 A3018 RMK AO2 SLP217 I1000 T00001006
cycle: 8

Station Type Date Time Source
KFLO TAF 2018/12/12 06:22 UTC NOAA

TAF KFLO 120520Z 1206/1306 VRB04KT P6SM SKC
FM120900 VRB02KT P6SM SCT250


Example: see airport list